sensor_id;sensor_type;location;lat;lon;timestamp;P1;durP1;ratioP1;P2;durP2;ratioP2
63203;SDS011;49297;43.210;27.914;2022-11-12T00:00:42;13.85;;;12.65;;
63203;SDS011;49297;43.210;27.914;2022-11-12T00:03:09;14.38;;;13.05;;
63203;SDS011;49297;43.210;27.914;2022-11-12T00:05:35;13.75;;;12.55;;
63203;SDS011;49297;43.210;27.914;2022-11-12T00:08:01;14.10;;;12.90;;
63203;SDS011;49297;43.210;27.914;2022-11-12T00:10:34;13.35;;;12.18;;
63203;SDS011;49297;43.210;27.914;2022-11-12T00:13:01;13.73;;;12.55;;
63203;SDS011;49297;43.210;27.914;2022-11-12T00:15:28;15.18;;;13.77;;
63203;SDS011;49297;43.210;27.914;2022-11-12T00:17:56;12.25;;;11.20;;
63203;SDS011;49297;43.210;27.914;2022-11-12T00:20:22;15.60;;;14.07;;
63203;SDS011;49297;43.210;27.914;2022-11-12T00:22:49;12.32;;;11.20;;
63203;SDS011;49297;43.210;27.914;2022-11-12T00:25:15;13.10;;;11.95;;
63203;SDS011;49297;43.210;27.914;2022-11-12T00:27:43;12.63;;;11.50;;
63203;SDS011;49297;43.210;27.914;2022-11-12T00:30:10;13.25;;;12.05;;
63203;SDS011;49297;43.210;27.914;2022-11-12T00:32:39;13.32;;;12.15;;
63203;SDS011;49297;43.210;27.914;2022-11-12T00:35:18;12.60;;;11.40;;
63203;SDS011;49297;43.210;27.914;2022-11-12T00:37:44;14.88;;;12.77;;
63203;SDS011;49297;43.210;27.914;2022-11-12T00:40:10;14.10;;;12.70;;
63203;SDS011;49297;43.210;27.914;2022-11-12T00:42:36;13.75;;;12.45;;
63203;SDS011;49297;43.210;27.914;2022-11-12T00:45:03;11.60;;;10.68;;
63203;SDS011;49297;43.210;27.914;2022-11-12T00:47:29;15.63;;;14.02;;
63203;SDS011;49297;43.210;27.914;2022-11-12T00:49:55;14.55;;;13.25;;
63203;SDS011;49297;43.210;27.914;2022-11-12T00:52:21;14.85;;;13.35;;
63203;SDS011;49297;43.210;27.914;2022-11-12T00:54:49;14.20;;;13.00;;
63203;SDS011;49297;43.210;27.914;2022-11-12T00:57:15;14.93;;;13.45;;
63203;SDS011;49297;43.210;27.914;2022-11-12T00:59:42;12.60;;;11.52;;
63203;SDS011;49297;43.210;27.914;2022-11-12T01:02:08;12.73;;;11.57;;
63203;SDS011;49297;43.210;27.914;2022-11-12T01:04:35;12.95;;;11.60;;
63203;SDS011;49297;43.210;27.914;2022-11-12T01:07:01;16.15;;;14.52;;
63203;SDS011;49297;43.210;27.914;2022-11-12T01:09:28;13.10;;;11.85;;
63203;SDS011;49297;43.210;27.914;2022-11-12T01:11:54;14.65;;;13.43;;
63203;SDS011;49297;43.210;27.914;2022-11-12T01:14:20;15.15;;;13.75;;
63203;SDS011;49297;43.210;27.914;2022-11-12T01:16:47;13.52;;;12.23;;
63203;SDS011;49297;43.210;27.914;2022-11-12T01:19:13;13.90;;;12.48;;
63203;SDS011;49297;43.210;27.914;2022-11-12T01:21:40;15.68;;;14.05;;
63203;SDS011;49297;43.210;27.914;2022-11-12T01:24:10;12.65;;;11.52;;
63203;SDS011;49297;43.210;27.914;2022-11-12T01:26:36;15.50;;;13.85;;
63203;SDS011;49297;43.210;27.914;2022-11-12T01:29:03;14.45;;;13.13;;
63203;SDS011;49297;43.210;27.914;2022-11-12T01:31:31;16.17;;;14.75;;
63203;SDS011;49297;43.210;27.914;2022-11-12T01:34:00;15.43;;;13.60;;
63203;SDS011;49297;43.210;27.914;2022-11-12T01:36:30;13.52;;;12.23;;
63203;SDS011;49297;43.210;27.914;2022-11-12T01:39:06;14.73;;;13.43;;
63203;SDS011;49297;43.210;27.914;2022-11-12T01:41:34;15.10;;;13.70;;
63203;SDS011;49297;43.210;27.914;2022-11-12T01:44:06;13.75;;;12.35;;
63203;SDS011;49297;43.210;27.914;2022-11-12T01:46:42;14.18;;;11.77;;
63203;SDS011;49297;43.210;27.914;2022-11-12T01:49:20;13.15;;;11.75;;
63203;SDS011;49297;43.210;27.914;2022-11-12T01:51:57;15.40;;;12.02;;
63203;SDS011;49297;43.210;27.914;2022-11-12T01:54:33;13.32;;;12.02;;
63203;SDS011;49297;43.210;27.914;2022-11-12T01:56:59;14.30;;;12.48;;
63203;SDS011;49297;43.210;27.914;2022-11-12T01:59:28;12.95;;;11.75;;
63203;SDS011;49297;43.210;27.914;2022-11-12T02:02:03;11.52;;;10.40;;
63203;SDS011;49297;43.210;27.914;2022-11-12T02:04:30;12.27;;;11.07;;
63203;SDS011;49297;43.210;27.914;2022-11-12T02:06:58;13.63;;;12.23;;
63203;SDS011;49297;43.210;27.914;2022-11-12T02:09:25;12.73;;;11.57;;
63203;SDS011;49297;43.210;27.914;2022-11-12T02:11:51;13.25;;;11.95;;
63203;SDS011;49297;43.210;27.914;2022-11-12T02:14:18;12.85;;;11.65;;
63203;SDS011;49297;43.210;27.914;2022-11-12T02:16:45;12.02;;;10.82;;
63203;SDS011;49297;43.210;27.914;2022-11-12T02:19:14;13.05;;;11.45;;
63203;SDS011;49297;43.210;27.914;2022-11-12T02:21:41;14.20;;;12.18;;
63203;SDS011;49297;43.210;27.914;2022-11-12T02:26:46;12.25;;;11.13;;
63203;SDS011;49297;43.210;27.914;2022-11-12T02:29:16;12.65;;;11.35;;
63203;SDS011;49297;43.210;27.914;2022-11-12T02:31:43;12.05;;;10.82;;
63203;SDS011;49297;43.210;27.914;2022-11-12T02:34:10;12.02;;;11.02;;
63203;SDS011;49297;43.210;27.914;2022-11-12T02:36:36;14.02;;;12.55;;
63203;SDS011;49297;43.210;27.914;2022-11-12T02:39:02;12.50;;;11.48;;
63203;SDS011;49297;43.210;27.914;2022-11-12T02:41:28;12.30;;;11.20;;
63203;SDS011;49297;43.210;27.914;2022-11-12T02:43:54;13.52;;;12.20;;
63203;SDS011;49297;43.210;27.914;2022-11-12T02:46:20;13.27;;;12.02;;
63203;SDS011;49297;43.210;27.914;2022-11-12T02:48:49;14.45;;;13.05;;
63203;SDS011;49297;43.210;27.914;2022-11-12T02:51:15;14.18;;;13.07;;
63203;SDS011;49297;43.210;27.914;2022-11-12T02:53:41;13.55;;;12.25;;
63203;SDS011;49297;43.210;27.914;2022-11-12T02:56:07;15.40;;;13.82;;
63203;SDS011;49297;43.210;27.914;2022-11-12T02:58:33;15.25;;;13.82;;
63203;SDS011;49297;43.210;27.914;2022-11-12T03:01:00;14.50;;;13.02;;
63203;SDS011;49297;43.210;27.914;2022-11-12T03:03:27;12.35;;;11.18;;
63203;SDS011;49297;43.210;27.914;2022-11-12T03:05:56;14.25;;;13.02;;
63203;SDS011;49297;43.210;27.914;2022-11-12T03:08:24;16.40;;;14.68;;
63203;SDS011;49297;43.210;27.914;2022-11-12T03:10:50;14.75;;;13.50;;
63203;SDS011;49297;43.210;27.914;2022-11-12T03:13:17;18.08;;;15.25;;
63203;SDS011;49297;43.210;27.914;2022-11-12T03:15:44;17.25;;;14.35;;
63203;SDS011;49297;43.210;27.914;2022-11-12T03:18:10;16.38;;;13.73;;
63203;SDS011;49297;43.210;27.914;2022-11-12T03:20:36;12.90;;;11.65;;
63203;SDS011;49297;43.210;27.914;2022-11-12T03:23:06;11.93;;;10.80;;
63203;SDS011;49297;43.210;27.914;2022-11-12T03:25:34;12.45;;;11.07;;
63203;SDS011;49297;43.210;27.914;2022-11-12T03:28:03;13.88;;;12.48;;
63203;SDS011;49297;43.210;27.914;2022-11-12T03:30:35;13.32;;;12.07;;
63203;SDS011;49297;43.210;27.914;2022-11-12T03:33:03;13.20;;;11.80;;
63203;SDS011;49297;43.210;27.914;2022-11-12T03:35:31;11.43;;;10.48;;
63203;SDS011;49297;43.210;27.914;2022-11-12T03:38:00;13.35;;;12.00;;
63203;SDS011;49297;43.210;27.914;2022-11-12T03:40:26;13.43;;;11.90;;
63203;SDS011;49297;43.210;27.914;2022-11-12T03:42:53;11.90;;;10.70;;
63203;SDS011;49297;43.210;27.914;2022-11-12T03:45:20;13.25;;;11.93;;
63203;SDS011;49297;43.210;27.914;2022-11-12T03:47:50;11.35;;;10.35;;
63203;SDS011;49297;43.210;27.914;2022-11-12T03:50:18;11.55;;;10.45;;
63203;SDS011;49297;43.210;27.914;2022-11-12T03:52:47;13.57;;;11.98;;
63203;SDS011;49297;43.210;27.914;2022-11-12T03:55:15;13.15;;;11.55;;
63203;SDS011;49297;43.210;27.914;2022-11-12T03:57:42;14.07;;;12.77;;
63203;SDS011;49297;43.210;27.914;2022-11-12T04:00:10;12.95;;;10.60;;
63203;SDS011;49297;43.210;27.914;2022-11-12T04:02:37;9.48;;;8.68;;
63203;SDS011;49297;43.210;27.914;2022-11-12T04:05:04;15.07;;;11.90;;
63203;SDS011;49297;43.210;27.914;2022-11-12T04:07:58;10.38;;;8.15;;
63203;SDS011;49297;43.210;27.914;2022-11-12T04:13:11;12.38;;;9.98;;
63203;SDS011;49297;43.210;27.914;2022-11-12T04:18:46;13.95;;;12.60;;
63203;SDS011;49297;43.210;27.914;2022-11-12T04:21:33;12.65;;;11.40;;
63203;SDS011;49297;43.210;27.914;2022-11-12T04:24:28;11.85;;;10.50;;
63203;SDS011;49297;43.210;27.914;2022-11-12T04:29:44;11.38;;;10.32;;
63203;SDS011;49297;43.210;27.914;2022-11-12T04:32:31;12.07;;;10.88;;
63203;SDS011;49297;43.210;27.914;2022-11-12T04:35:00;13.82;;;12.02;;
63203;SDS011;49297;43.210;27.914;2022-11-12T04:37:28;13.15;;;11.90;;
63203;SDS011;49297;43.210;27.914;2022-11-12T04:40:20;14.55;;;13.15;;
63203;SDS011;49297;43.210;27.914;2022-11-12T04:43:13;14.45;;;13.02;;
63203;SDS011;49297;43.210;27.914;2022-11-12T04:46:01;11.73;;;10.60;;
63203;SDS011;49297;43.210;27.914;2022-11-12T04:48:28;14.68;;;13.18;;
63203;SDS011;49297;43.210;27.914;2022-11-12T04:50:59;14.57;;;13.02;;
63203;SDS011;49297;43.210;27.914;2022-11-12T04:53:28;14.70;;;13.10;;
63203;SDS011;49297;43.210;27.914;2022-11-12T04:55:56;18.50;;;14.77;;
63203;SDS011;49297;43.210;27.914;2022-11-12T04:58:23;14.05;;;12.80;;
63203;SDS011;49297;43.210;27.914;2022-11-12T05:00:51;15.15;;;12.52;;
63203;SDS011;49297;43.210;27.914;2022-11-12T05:03:17;13.40;;;12.20;;
63203;SDS011;49297;43.210;27.914;2022-11-12T05:05:43;15.23;;;13.88;;
63203;SDS011;49297;43.210;27.914;2022-11-12T05:08:11;16.70;;;13.90;;
63203;SDS011;49297;43.210;27.914;2022-11-12T05:10:37;13.32;;;12.13;;
63203;SDS011;49297;43.210;27.914;2022-11-12T05:13:04;13.45;;;12.25;;
63203;SDS011;49297;43.210;27.914;2022-11-12T05:15:31;13.85;;;12.73;;
63203;SDS011;49297;43.210;27.914;2022-11-12T05:17:57;12.82;;;11.52;;
63203;SDS011;49297;43.210;27.914;2022-11-12T05:20:25;16.40;;;12.00;;
63203;SDS011;49297;43.210;27.914;2022-11-12T05:22:51;12.88;;;11.70;;
63203;SDS011;49297;43.210;27.914;2022-11-12T05:25:16;12.43;;;11.25;;
63203;SDS011;49297;43.210;27.914;2022-11-12T05:27:46;13.85;;;12.55;;
63203;SDS011;49297;43.210;27.914;2022-11-12T05:30:14;11.90;;;10.90;;
63203;SDS011;49297;43.210;27.914;2022-11-12T05:32:40;12.48;;;11.32;;
63203;SDS011;49297;43.210;27.914;2022-11-12T05:35:06;13.95;;;12.55;;
63203;SDS011;49297;43.210;27.914;2022-11-12T05:37:32;14.80;;;13.43;;
63203;SDS011;49297;43.210;27.914;2022-11-12T05:40:04;13.23;;;12.02;;
63203;SDS011;49297;43.210;27.914;2022-11-12T05:42:31;13.55;;;12.20;;
63203;SDS011;49297;43.210;27.914;2022-11-12T05:44:57;11.45;;;10.32;;
63203;SDS011;49297;43.210;27.914;2022-11-12T05:47:25;11.05;;;10.02;;
63203;SDS011;49297;43.210;27.914;2022-11-12T05:49:52;12.30;;;11.32;;
63203;SDS011;49297;43.210;27.914;2022-11-12T05:52:19;12.43;;;11.38;;
63203;SDS011;49297;43.210;27.914;2022-11-12T05:57:15;10.63;;;9.70;;
63203;SDS011;49297;43.210;27.914;2022-11-12T05:59:41;9.98;;;8.73;;
63203;SDS011;49297;43.210;27.914;2022-11-12T06:02:08;11.15;;;9.85;;
63203;SDS011;49297;43.210;27.914;2022-11-12T06:04:34;9.32;;;8.30;;
63203;SDS011;49297;43.210;27.914;2022-11-12T06:07:00;8.85;;;7.95;;
63203;SDS011;49297;43.210;27.914;2022-11-12T06:09:28;9.38;;;8.40;;
63203;SDS011;49297;43.210;27.914;2022-11-12T06:11:54;9.40;;;8.57;;
63203;SDS011;49297;43.210;27.914;2022-11-12T06:14:20;10.05;;;9.20;;
63203;SDS011;49297;43.210;27.914;2022-11-12T06:16:46;9.95;;;9.05;;
63203;SDS011;49297;43.210;27.914;2022-11-12T06:19:12;10.85;;;9.85;;
63203;SDS011;49297;43.210;27.914;2022-11-12T06:21:39;10.88;;;9.98;;
63203;SDS011;49297;43.210;27.914;2022-11-12T06:24:05;12.25;;;10.13;;
63203;SDS011;49297;43.210;27.914;2022-11-12T06:26:31;10.05;;;9.05;;
63203;SDS011;49297;43.210;27.914;2022-11-12T06:28:59;10.93;;;9.93;;
63203;SDS011;49297;43.210;27.914;2022-11-12T06:31:25;10.98;;;9.98;;
63203;SDS011;49297;43.210;27.914;2022-11-12T06:36:21;9.55;;;8.60;;
63203;SDS011;49297;43.210;27.914;2022-11-12T06:38:47;9.95;;;9.05;;
63203;SDS011;49297;43.210;27.914;2022-11-12T06:41:13;9.02;;;8.20;;
63203;SDS011;49297;43.210;27.914;2022-11-12T06:43:40;11.02;;;8.52;;
63203;SDS011;49297;43.210;27.914;2022-11-12T06:46:08;8.65;;;7.95;;
63203;SDS011;49297;43.210;27.914;2022-11-12T06:48:38;9.27;;;8.48;;
63203;SDS011;49297;43.210;27.914;2022-11-12T06:51:05;9.35;;;8.45;;
63203;SDS011;49297;43.210;27.914;2022-11-12T06:53:33;8.63;;;7.82;;
63203;SDS011;49297;43.210;27.914;2022-11-12T06:56:03;11.20;;;10.00;;
63203;SDS011;49297;43.210;27.914;2022-11-12T06:58:31;11.50;;;9.85;;
63203;SDS011;49297;43.210;27.914;2022-11-12T07:01:09;11.10;;;10.07;;
63203;SDS011;49297;43.210;27.914;2022-11-12T07:03:41;10.98;;;9.93;;
63203;SDS011;49297;43.210;27.914;2022-11-12T07:06:12;11.13;;;10.13;;
63203;SDS011;49297;43.210;27.914;2022-11-12T07:08:40;11.55;;;10.43;;
63203;SDS011;49297;43.210;27.914;2022-11-12T07:11:06;11.82;;;10.75;;
63203;SDS011;49297;43.210;27.914;2022-11-12T07:13:34;12.98;;;11.75;;
63203;SDS011;49297;43.210;27.914;2022-11-12T07:16:03;12.52;;;11.45;;
63203;SDS011;49297;43.210;27.914;2022-11-12T07:18:31;12.15;;;11.15;;
63203;SDS011;49297;43.210;27.914;2022-11-12T07:20:58;10.85;;;9.85;;
63203;SDS011;49297;43.210;27.914;2022-11-12T07:23:29;12.15;;;11.15;;
63203;SDS011;49297;43.210;27.914;2022-11-12T07:25:59;10.60;;;9.60;;
63203;SDS011;49297;43.210;27.914;2022-11-12T07:28:29;11.82;;;10.73;;
63203;SDS011;49297;43.210;27.914;2022-11-12T07:31:02;10.40;;;9.43;;
63203;SDS011;49297;43.210;27.914;2022-11-12T07:33:42;10.18;;;9.13;;
63203;SDS011;49297;43.210;27.914;2022-11-12T07:36:10;7.10;;;6.53;;
63203;SDS011;49297;43.210;27.914;2022-11-12T07:38:38;9.98;;;9.00;;
63203;SDS011;49297;43.210;27.914;2022-11-12T07:41:07;10.90;;;9.90;;
63203;SDS011;49297;43.210;27.914;2022-11-12T07:43:36;11.80;;;10.75;;
63203;SDS011;49297;43.210;27.914;2022-11-12T07:46:05;11.52;;;10.43;;
63203;SDS011;49297;43.210;27.914;2022-11-12T07:48:42;10.77;;;9.80;;
63203;SDS011;49297;43.210;27.914;2022-11-12T07:51:13;11.63;;;10.63;;
63203;SDS011;49297;43.210;27.914;2022-11-12T07:53:42;11.07;;;10.18;;
63203;SDS011;49297;43.210;27.914;2022-11-12T07:56:11;10.45;;;9.48;;
63203;SDS011;49297;43.210;27.914;2022-11-12T07:58:38;9.57;;;8.88;;
63203;SDS011;49297;43.210;27.914;2022-11-12T08:01:08;11.55;;;9.63;;
63203;SDS011;49297;43.210;27.914;2022-11-12T08:03:55;10.63;;;9.60;;
63203;SDS011;49297;43.210;27.914;2022-11-12T08:06:21;10.68;;;9.77;;
63203;SDS011;49297;43.210;27.914;2022-11-12T08:08:51;11.38;;;10.23;;
63203;SDS011;49297;43.210;27.914;2022-11-12T08:11:19;10.27;;;9.35;;
63203;SDS011;49297;43.210;27.914;2022-11-12T08:13:45;8.13;;;7.40;;
63203;SDS011;49297;43.210;27.914;2022-11-12T08:16:12;7.65;;;6.95;;
63203;SDS011;49297;43.210;27.914;2022-11-12T08:18:40;9.70;;;8.80;;
63203;SDS011;49297;43.210;27.914;2022-11-12T08:21:08;9.30;;;8.40;;
63203;SDS011;49297;43.210;27.914;2022-11-12T08:23:36;10.48;;;9.30;;
63203;SDS011;49297;43.210;27.914;2022-11-12T08:26:05;9.30;;;8.50;;
63203;SDS011;49297;43.210;27.914;2022-11-12T08:28:34;9.77;;;8.98;;
63203;SDS011;49297;43.210;27.914;2022-11-12T08:31:06;10.32;;;8.23;;
63203;SDS011;49297;43.210;27.914;2022-11-12T08:33:35;9.13;;;8.32;;
63203;SDS011;49297;43.210;27.914;2022-11-12T08:36:02;10.07;;;9.15;;
63203;SDS011;49297;43.210;27.914;2022-11-12T08:38:29;8.43;;;7.65;;
63203;SDS011;49297;43.210;27.914;2022-11-12T08:40:59;9.98;;;9.07;;
63203;SDS011;49297;43.210;27.914;2022-11-12T08:43:26;10.20;;;9.15;;
63203;SDS011;49297;43.210;27.914;2022-11-12T08:45:56;10.60;;;9.55;;
63203;SDS011;49297;43.210;27.914;2022-11-12T08:48:23;10.18;;;9.18;;
63203;SDS011;49297;43.210;27.914;2022-11-12T08:50:50;9.02;;;8.25;;
63203;SDS011;49297;43.210;27.914;2022-11-12T08:53:19;9.52;;;8.65;;
63203;SDS011;49297;43.210;27.914;2022-11-12T08:55:51;10.55;;;9.60;;
63203;SDS011;49297;43.210;27.914;2022-11-12T08:58:18;10.63;;;9.68;;
63203;SDS011;49297;43.210;27.914;2022-11-12T09:00:45;10.05;;;9.07;;
63203;SDS011;49297;43.210;27.914;2022-11-12T09:03:14;10.23;;;9.25;;
63203;SDS011;49297;43.210;27.914;2022-11-12T09:05:44;10.95;;;10.00;;
63203;SDS011;49297;43.210;27.914;2022-11-12T09:08:15;11.43;;;10.13;;
63203;SDS011;49297;43.210;27.914;2022-11-12T09:10:44;10.57;;;8.60;;
63203;SDS011;49297;43.210;27.914;2022-11-12T09:13:11;9.80;;;8.90;;
63203;SDS011;49297;43.210;27.914;2022-11-12T09:15:38;9.80;;;8.75;;
63203;SDS011;49297;43.210;27.914;2022-11-12T09:18:10;9.50;;;8.70;;
63203;SDS011;49297;43.210;27.914;2022-11-12T09:20:41;8.25;;;7.63;;
63203;SDS011;49297;43.210;27.914;2022-11-12T09:23:11;9.65;;;8.80;;
63203;SDS011;49297;43.210;27.914;2022-11-12T09:25:39;8.38;;;7.63;;
63203;SDS011;49297;43.210;27.914;2022-11-12T09:28:07;8.30;;;7.50;;
63203;SDS011;49297;43.210;27.914;2022-11-12T09:30:45;8.20;;;7.30;;
63203;SDS011;49297;43.210;27.914;2022-11-12T09:33:13;8.23;;;7.00;;
63203;SDS011;49297;43.210;27.914;2022-11-12T09:35:52;7.43;;;6.40;;
63203;SDS011;49297;43.210;27.914;2022-11-12T09:38:20;11.35;;;7.43;;
63203;SDS011;49297;43.210;27.914;2022-11-12T09:45:51;9.70;;;8.65;;
63203;SDS011;49297;43.210;27.914;2022-11-12T09:48:24;9.45;;;7.65;;
63203;SDS011;49297;43.210;27.914;2022-11-12T09:51:03;7.82;;;7.07;;
63203;SDS011;49297;43.210;27.914;2022-11-12T09:56:47;5.97;;;5.47;;
63203;SDS011;49297;43.210;27.914;2022-11-12T09:59:14;5.90;;;5.30;;
63203;SDS011;49297;43.210;27.914;2022-11-12T10:06:49;6.70;;;5.85;;
63203;SDS011;49297;43.210;27.914;2022-11-12T10:09:31;7.43;;;5.05;;
63203;SDS011;49297;43.210;27.914;2022-11-12T10:12:23;5.60;;;5.10;;
63203;SDS011;49297;43.210;27.914;2022-11-12T10:18:22;6.63;;;5.90;;
63203;SDS011;49297;43.210;27.914;2022-11-12T10:21:16;6.82;;;5.65;;
63203;SDS011;49297;43.210;27.914;2022-11-12T10:23:51;8.20;;;6.30;;
63203;SDS011;49297;43.210;27.914;2022-11-12T10:26:19;7.70;;;6.80;;
63203;SDS011;49297;43.210;27.914;2022-11-12T10:28:49;9.05;;;5.85;;
63203;SDS011;49297;43.210;27.914;2022-11-12T10:31:24;9.18;;;5.80;;
63203;SDS011;49297;43.210;27.914;2022-11-12T10:33:50;7.68;;;6.85;;
63203;SDS011;49297;43.210;27.914;2022-11-12T10:38:56;7.43;;;6.70;;
63203;SDS011;49297;43.210;27.914;2022-11-12T10:41:26;8.68;;;7.80;;
63203;SDS011;49297;43.210;27.914;2022-11-12T10:44:02;7.50;;;6.80;;
63203;SDS011;49297;43.210;27.914;2022-11-12T10:46:40;8.75;;;7.38;;
63203;SDS011;49297;43.210;27.914;2022-11-12T10:49:20;8.57;;;6.50;;
63203;SDS011;49297;43.210;27.914;2022-11-12T10:51:55;9.55;;;7.03;;
63203;SDS011;49297;43.210;27.914;2022-11-12T10:56:52;7.28;;;6.45;;
63203;SDS011;49297;43.210;27.914;2022-11-12T10:59:23;9.73;;;6.90;;
63203;SDS011;49297;43.210;27.914;2022-11-12T11:01:54;8.65;;;7.35;;
63203;SDS011;49297;43.210;27.914;2022-11-12T11:07:02;7.65;;;7.00;;
63203;SDS011;49297;43.210;27.914;2022-11-12T11:09:30;18.05;;;9.15;;
63203;SDS011;49297;43.210;27.914;2022-11-12T11:12:00;7.25;;;6.50;;
63203;SDS011;49297;43.210;27.914;2022-11-12T11:14:31;9.02;;;8.00;;
63203;SDS011;49297;43.210;27.914;2022-11-12T11:17:02;7.93;;;7.28;;
63203;SDS011;49297;43.210;27.914;2022-11-12T11:19:35;10.80;;;8.52;;
63203;SDS011;49297;43.210;27.914;2022-11-12T11:22:16;12.80;;;10.32;;
63203;SDS011;49297;43.210;27.914;2022-11-12T11:30:25;9.60;;;8.70;;
63203;SDS011;49297;43.210;27.914;2022-11-12T11:33:16;9.90;;;8.90;;
63203;SDS011;49297;43.210;27.914;2022-11-12T11:38:57;12.55;;;9.63;;
63203;SDS011;49297;43.210;27.914;2022-11-12T12:00:54;11.30;;;10.20;;
63203;SDS011;49297;43.210;27.914;2022-11-12T12:06:19;10.40;;;8.57;;
63203;SDS011;49297;43.210;27.914;2022-11-12T12:17:18;19.00;;;10.40;;
63203;SDS011;49297;43.210;27.914;2022-11-12T12:19:56;16.00;;;11.90;;
63203;SDS011;49297;43.210;27.914;2022-11-12T12:22:48;14.77;;;11.02;;
63203;SDS011;49297;43.210;27.914;2022-11-12T12:25:20;10.50;;;8.80;;
63203;SDS011;49297;43.210;27.914;2022-11-12T12:30:34;12.25;;;10.70;;
63203;SDS011;49297;43.210;27.914;2022-11-12T12:35:43;12.33;;;10.53;;
63203;SDS011;49297;43.210;27.914;2022-11-12T12:41:11;13.17;;;11.97;;
63203;SDS011;49297;43.210;27.914;2022-11-12T12:43:45;12.07;;;10.98;;
63203;SDS011;49297;43.210;27.914;2022-11-12T12:46:19;14.18;;;9.85;;
63203;SDS011;49297;43.210;27.914;2022-11-12T12:48:49;11.73;;;10.63;;
63203;SDS011;49297;43.210;27.914;2022-11-12T12:51:18;15.30;;;12.20;;
63203;SDS011;49297;43.210;27.914;2022-11-12T12:53:46;11.52;;;10.50;;
63203;SDS011;49297;43.210;27.914;2022-11-12T12:58:43;13.52;;;12.20;;
63203;SDS011;49297;43.210;27.914;2022-11-12T13:03:50;12.02;;;10.82;;
63203;SDS011;49297;43.210;27.914;2022-11-12T13:06:34;13.38;;;11.13;;
63203;SDS011;49297;43.210;27.914;2022-11-12T13:17:08;12.80;;;11.38;;
63203;SDS011;49297;43.210;27.914;2022-11-12T13:30:09;13.50;;;10.68;;
63203;SDS011;49297;43.210;27.914;2022-11-12T13:40:16;12.15;;;10.65;;
63203;SDS011;49297;43.210;27.914;2022-11-12T13:46:03;14.75;;;13.18;;
63203;SDS011;49297;43.210;27.914;2022-11-12T13:48:35;14.25;;;12.02;;
63203;SDS011;49297;43.210;27.914;2022-11-12T13:51:13;15.00;;;13.50;;
63203;SDS011;49297;43.210;27.914;2022-11-12T13:53:43;14.52;;;12.35;;
63203;SDS011;49297;43.210;27.914;2022-11-12T13:56:10;14.60;;;12.82;;
63203;SDS011;49297;43.210;27.914;2022-11-12T13:58:51;15.55;;;11.90;;
63203;SDS011;49297;43.210;27.914;2022-11-12T14:01:18;12.93;;;10.13;;
63203;SDS011;49297;43.210;27.914;2022-11-12T14:03:49;18.60;;;14.10;;
63203;SDS011;49297;43.210;27.914;2022-11-12T14:14:44;12.98;;;11.68;;
63203;SDS011;49297;43.210;27.914;2022-11-12T14:22:53;13.10;;;11.85;;
63203;SDS011;49297;43.210;27.914;2022-11-12T14:27:52;15.20;;;12.07;;
63203;SDS011;49297;43.210;27.914;2022-11-12T14:30:28;15.48;;;12.15;;
63203;SDS011;49297;43.210;27.914;2022-11-12T14:32:59;13.90;;;12.25;;
63203;SDS011;49297;43.210;27.914;2022-11-12T14:35:39;11.95;;;10.85;;
63203;SDS011;49297;43.210;27.914;2022-11-12T14:38:10;12.40;;;11.27;;
63203;SDS011;49297;43.210;27.914;2022-11-12T14:43:52;12.20;;;10.73;;
63203;SDS011;49297;43.210;27.914;2022-11-12T14:51:28;11.38;;;10.23;;
63203;SDS011;49297;43.210;27.914;2022-11-12T14:54:04;11.73;;;10.63;;
63203;SDS011;49297;43.210;27.914;2022-11-12T14:56:33;17.25;;;11.23;;
63203;SDS011;49297;43.210;27.914;2022-11-12T14:59:04;12.48;;;11.32;;
63203;SDS011;49297;43.210;27.914;2022-11-12T15:01:34;13.30;;;10.55;;
63203;SDS011;49297;43.210;27.914;2022-11-12T15:06:56;13.73;;;11.70;;
63203;SDS011;49297;43.210;27.914;2022-11-12T15:09:36;15.48;;;11.90;;
63203;SDS011;49297;43.210;27.914;2022-11-12T15:12:03;12.27;;;11.18;;
63203;SDS011;49297;43.210;27.914;2022-11-12T15:14:33;12.93;;;11.60;;
63203;SDS011;49297;43.210;27.914;2022-11-12T15:17:00;11.98;;;10.88;;
63203;SDS011;49297;43.210;27.914;2022-11-12T15:19:29;12.07;;;10.88;;
63203;SDS011;49297;43.210;27.914;2022-11-12T15:21:59;12.70;;;11.35;;
63203;SDS011;49297;43.210;27.914;2022-11-12T15:24:29;13.13;;;11.63;;
63203;SDS011;49297;43.210;27.914;2022-11-12T15:26:59;12.73;;;11.52;;
63203;SDS011;49297;43.210;27.914;2022-11-12T15:37:07;13.07;;;11.45;;
63203;SDS011;49297;43.210;27.914;2022-11-12T15:39:40;12.77;;;11.68;;
63203;SDS011;49297;43.210;27.914;2022-11-12T15:42:51;13.18;;;11.98;;
63203;SDS011;49297;43.210;27.914;2022-11-12T15:45:04;13.98;;;12.57;;
63203;SDS011;49297;43.210;27.914;2022-11-12T15:47:45;14.38;;;13.02;;
63203;SDS011;49297;43.210;27.914;2022-11-12T15:52:39;14.63;;;13.02;;
63203;SDS011;49297;43.210;27.914;2022-11-12T15:55:05;14.38;;;12.88;;
63203;SDS011;49297;43.210;27.914;2022-11-12T15:57:33;13.77;;;12.57;;
63203;SDS011;49297;43.210;27.914;2022-11-12T16:00:17;22.40;;;13.55;;
63203;SDS011;49297;43.210;27.914;2022-11-12T16:02:54;14.65;;;13.35;;
63203;SDS011;49297;43.210;27.914;2022-11-12T16:05:24;17.10;;;12.48;;
63203;SDS011;49297;43.210;27.914;2022-11-12T16:07:51;14.70;;;12.48;;
63203;SDS011;49297;43.210;27.914;2022-11-12T16:10:18;13.48;;;12.27;;
63203;SDS011;49297;43.210;27.914;2022-11-12T16:12:46;13.85;;;12.50;;
63203;SDS011;49297;43.210;27.914;2022-11-12T16:15:16;12.73;;;11.52;;
63203;SDS011;49297;43.210;27.914;2022-11-12T16:17:46;18.20;;;12.88;;
63203;SDS011;49297;43.210;27.914;2022-11-12T16:20:20;16.00;;;14.52;;
63203;SDS011;49297;43.210;27.914;2022-11-12T16:22:49;15.98;;;12.65;;
63203;SDS011;49297;43.210;27.914;2022-11-12T16:25:17;15.98;;;14.27;;
63203;SDS011;49297;43.210;27.914;2022-11-12T16:27:45;13.43;;;12.23;;
63203;SDS011;49297;43.210;27.914;2022-11-12T16:30:24;14.25;;;13.00;;
63203;SDS011;49297;43.210;27.914;2022-11-12T16:32:55;18.05;;;12.32;;
63203;SDS011;49297;43.210;27.914;2022-11-12T16:35:24;19.27;;;14.93;;
63203;SDS011;49297;43.210;27.914;2022-11-12T16:37:55;16.80;;;14.63;;
63203;SDS011;49297;43.210;27.914;2022-11-12T16:40:24;18.20;;;16.33;;
63203;SDS011;49297;43.210;27.914;2022-11-12T16:42:52;15.00;;;13.43;;
63203;SDS011;49297;43.210;27.914;2022-11-12T16:45:22;17.13;;;15.50;;
63203;SDS011;49297;43.210;27.914;2022-11-12T16:47:53;14.00;;;12.65;;
63203;SDS011;49297;43.210;27.914;2022-11-12T16:50:26;18.02;;;16.17;;
63203;SDS011;49297;43.210;27.914;2022-11-12T16:52:54;17.48;;;15.82;;
63203;SDS011;49297;43.210;27.914;2022-11-12T16:55:20;17.10;;;15.60;;
63203;SDS011;49297;43.210;27.914;2022-11-12T16:57:47;13.50;;;12.20;;
63203;SDS011;49297;43.210;27.914;2022-11-12T17:00:15;15.30;;;13.00;;
63203;SDS011;49297;43.210;27.914;2022-11-12T17:02:42;14.32;;;12.73;;
63203;SDS011;49297;43.210;27.914;2022-11-12T17:05:16;14.50;;;13.20;;
63203;SDS011;49297;43.210;27.914;2022-11-12T17:07:47;15.65;;;14.23;;
63203;SDS011;49297;43.210;27.914;2022-11-12T17:10:13;17.25;;;13.10;;
63203;SDS011;49297;43.210;27.914;2022-11-12T17:12:42;18.50;;;11.60;;